.
WxDataArchive / Data Records for 2015-09-03
2015-09-02 September 2015 2015-09-04

Data Records for Thursday, 03 September 2015

Time	Temp	Chill	HIndex	Humid	Dewpt	 Wind 	HiWind	WindDir	Rain 	Barom
-----	----	-----	------	-----	-----	------	------	-------	-----	-----
00:00	73.0	73.0	73.0	87	68.9	0	0	---	0.00	29.957 
00:05	73.0	73.0	73.0	88	69.2	0	0	---	0.00	29.957 
00:10	73.0	73.0	73.0	88	69.2	0	0	---	0.00	29.957 
00:15	73.0	73.0	73.0	88	69.2	0	0	---	0.00	29.953 
00:20	73.0	73.0	73.0	88	69.2	0	0	---	0.00	29.953 
00:25	73.0	73.0	73.0	89	69.6	0	0	---	0.00	29.953 
00:30	73.0	73.0	73.0	89	69.6	0	0	---	0.00	29.952 
00:35	72.8	72.8	72.8	90	69.7	0	0	---	0.00	29.952 
00:40	72.8	72.8	72.8	90	69.7	0	0	---	0.00	29.952 
00:45	72.7	72.7	72.7	90	69.6	0	0	---	0.00	29.951 
00:50	72.7	72.7	72.7	90	69.6	0	0	---	0.00	29.951 
00:55	72.7	72.7	72.7	90	69.6	0	0	---	0.00	29.951 
01:00	72.7	72.7	72.7	90	69.6	0	0	---	0.00	29.944 
01:05	72.5	72.5	72.5	90	69.4	0	0	---	0.00	29.944 
01:10	72.5	72.5	72.5	90	69.4	0	0	---	0.00	29.944 
01:15	72.7	72.7	72.7	90	69.6	0	0	---	0.00	29.946 
01:20	72.7	72.7	72.7	90	69.6	0	1	112	0.00	29.946 
01:25	72.8	72.8	72.8	90	69.7	0	0	---	0.00	29.946 
01:30	72.8	72.8	72.8	90	69.7	0	0	---	0.00	29.938 
01:35	72.7	72.7	72.7	90	69.6	0	0	---	0.00	29.938 
01:40	72.7	72.7	72.7	89	69.3	0	0	---	0.00	29.938 
01:45	72.5	72.5	72.5	90	69.4	0	0	---	0.00	29.937 
01:50	72.5	72.5	72.5	90	69.4	0	0	---	0.00	29.937 
01:55	72.5	72.5	72.5	90	69.4	0	0	---	0.00	29.937 
02:00	72.5	72.5	72.5	90	69.4	0	0	---	0.00	29.933 
02:05	72.3	72.3	72.3	90	69.2	0	0	---	0.00	29.933 
02:10	72.3	72.3	72.3	90	69.2	0	0	---	0.00	29.933 
02:15	72.1	72.1	72.1	90	69.0	0	0	---	0.00	29.931 
02:20	72.0	72.0	72.0	90	68.9	0	0	---	0.00	29.931 
02:25	71.8	71.8	71.8	90	68.7	0	0	---	0.00	29.931 
02:30	71.8	71.8	71.8	91	69.0	0	0	---	0.00	29.932 
02:35	71.6	71.6	71.6	91	68.8	0	0	---	0.00	29.932 
02:40	71.6	71.6	71.6	91	68.8	0	0	---	0.00	29.932 
02:45	71.5	71.5	71.5	91	68.7	0	0	---	0.00	29.931 
02:50	71.5	71.5	71.5	91	68.7	0	0	---	0.00	29.931 
02:55	71.3	71.3	71.3	91	68.5	0	0	---	0.00	29.931 
03:00	71.3	71.3	71.3	91	68.5	0	0	---	0.00	29.932 
03:05	71.1	71.1	71.1	91	68.3	0	0	---	0.00	29.932 
03:10	70.9	70.9	70.9	91	68.1	0	0	---	0.00	29.932 
03:15	70.9	70.9	70.9	91	68.1	0	0	---	0.00	29.933 
03:20	70.8	70.8	70.8	91	68.0	0	0	---	0.00	29.933 
03:25	70.8	70.8	70.8	92	68.4	0	0	---	0.00	29.933 
03:30	70.6	70.6	70.6	92	68.2	0	0	---	0.00	29.931 
03:35	70.6	70.6	70.6	92	68.2	0	0	---	0.00	29.931 
03:40	70.4	70.4	70.4	92	68.0	0	0	---	0.00	29.931 
03:45	70.4	70.4	70.4	92	68.0	0	0	---	0.00	29.929 
03:50	70.4	70.4	70.4	92	68.0	0	0	---	0.00	29.929 
03:55	70.4	70.4	70.4	92	68.0	0	0	---	0.00	29.929 
04:00	70.4	70.4	70.4	92	68.0	0	0	---	0.00	29.926 
04:05	70.6	70.6	70.6	92	68.2	0	0	---	0.00	29.926 
04:10	70.6	70.6	70.6	92	68.2	0	0	---	0.00	29.926 
04:15	70.6	70.6	70.6	92	68.2	0	0	---	0.00	29.926 
04:20	70.6	70.6	70.6	92	68.2	0	0	---	0.00	29.926 
04:25	70.6	70.6	70.6	92	68.2	0	0	---	0.00	29.926 
04:30	70.4	70.4	70.4	92	68.0	0	0	---	0.00	29.928 
04:35	70.4	70.4	70.4	92	68.0	0	0	---	0.00	29.928 
04:40	70.4	70.4	70.4	93	68.3	0	0	---	0.00	29.928 
04:45	70.3	70.3	70.3	93	68.2	0	0	---	0.00	29.931 
04:50	70.3	70.3	70.3	93	68.2	0	0	---	0.00	29.931 
04:55	70.1	70.1	70.1	93	68.0	0	0	---	0.00	29.931 
05:00	70.1	70.1	70.1	93	68.0	0	0	---	0.00	29.930 
05:05	69.9	69.9	69.9	93	67.8	0	0	---	0.00	29.930 
05:10	69.9	69.9	69.9	93	67.8	0	0	---	0.00	29.930 
05:15	69.9	69.9	69.9	93	67.8	0	0	---	0.00	29.931 
05:20	69.9	69.9	69.9	93	67.8	0	0	---	0.00	29.931 
05:25	69.8	69.8	69.8	93	67.7	0	0	---	0.00	29.931 
05:30	69.8	69.8	69.8	93	67.7	0	0	---	0.00	29.932 
05:35	69.8	69.8	69.8	93	67.7	0	0	---	0.00	29.932 
05:40	69.8	69.8	69.8	93	67.7	0	0	---	0.00	29.932 
05:45	69.6	69.6	69.6	93	67.5	0	0	---	0.00	29.937 
05:50	69.6	69.6	69.6	93	67.5	0	0	---	0.00	29.937 
05:55	69.6	69.6	69.6	93	67.5	0	0	---	0.00	29.937 
06:00	69.6	69.6	69.6	93	67.5	0	0	---	0.00	29.937 
06:05	69.6	69.6	69.6	93	67.5	0	0	---	0.00	29.937 
06:10	69.6	69.6	69.6	94	67.8	0	0	---	0.00	29.937 
06:15	69.4	69.4	69.4	94	67.6	0	0	---	0.00	29.940 
06:20	69.4	69.4	69.4	94	67.6	0	0	---	0.00	29.940 
06:25	69.3	69.3	69.3	94	67.5	0	0	---	0.00	29.940 
06:30	69.3	69.3	69.3	94	67.5	0	0	---	0.00	29.943 
06:35	69.1	69.1	69.1	94	67.3	0	0	---	0.00	29.943 
06:40	69.1	69.1	69.1	94	67.3	0	0	---	0.00	29.943 
06:45	69.1	69.1	69.1	94	67.3	0	0	---	0.00	29.947 
06:50	69.1	69.1	69.1	94	67.3	0	0	---	0.00	29.947 
06:55	68.9	68.9	68.9	94	67.1	0	0	---	0.00	29.947 
07:00	69.1	69.1	69.1	94	67.3	0	0	---	0.00	29.947 
07:05	69.1	69.1	69.1	94	67.3	0	0	---	0.00	29.947 
07:10	69.1	69.1	69.1	94	67.3	0	0	---	0.00	29.947 
07:15	69.1	69.1	69.1	94	67.3	0	0	---	0.00	29.946 
07:20	69.3	69.3	69.3	94	67.5	0	0	---	0.00	29.946 
07:25	69.3	69.3	69.3	94	67.5	0	0	---	0.00	29.946 
07:30	69.1	69.1	69.1	94	67.3	0	0	---	0.00	29.947 
07:35	69.1	69.1	69.1	94	67.3	0	0	---	0.00	29.947 
07:40	69.1	69.1	69.1	94	67.3	0	0	---	0.00	29.947 
07:45	69.3	69.3	69.3	94	67.5	0	0	---	0.00	29.948 
07:50	69.4	69.4	69.4	94	67.6	0	0	---	0.00	29.948 
07:55	69.4	69.4	69.4	94	67.6	0	0	---	0.00	29.948 
08:00	69.6	69.6	69.6	95	68.1	0	0	---	0.00	29.949 
08:05	69.9	69.9	69.9	94	68.1	0	0	---	0.00	29.949 
08:10	70.1	70.1	70.1	94	68.3	0	0	---	0.00	29.949 
08:15	70.4	70.4	70.4	94	68.6	0	0	---	0.00	29.950 
08:20	70.6	70.6	70.6	94	68.8	0	0	---	0.00	29.950 
08:25	70.9	70.9	70.9	94	69.1	0	0	---	0.00	29.950 
08:30	71.3	71.3	71.3	94	69.5	0	0	---	0.00	29.947 
08:35	71.6	71.6	71.6	93	69.5	0	0	---	0.00	29.947 
08:40	72.0	72.0	72.0	93	69.9	0	0	---	0.00	29.947 
08:45	72.3	72.3	72.3	92	69.8	0	0	---	0.00	29.946 
08:50	72.8	72.8	72.8	91	70.0	0	1	112	0.00	29.946 
08:55	73.2	73.2	73.2	90	70.1	0	1	112	0.00	29.946 
09:00	73.5	73.5	73.5	88	69.7	0	0	---	0.00	29.942 
09:05	73.9	73.9	73.9	87	69.8	0	1	112	0.00	29.942 
09:10	74.2	74.2	74.2	85	69.4	0	1	112	0.00	29.942 
09:15	74.7	74.7	74.7	84	69.5	0	1	112	0.00	29.941 
09:20	75.1	75.1	75.3	83	69.6	0	2	112	0.00	29.941 
09:25	75.4	75.4	76.0	81	69.1	0	2	112	0.00	29.941 
09:30	75.8	75.8	76.7	80	69.2	0	1	112	0.00	29.940 
09:35	76.1	76.1	77.2	79	69.1	0	2	112	0.00	29.940 
09:40	76.5	76.5	77.9	78	69.1	1	3	112	0.00	29.940 
09:45	76.8	76.8	78.4	77	69.0	0	3	112	0.00	29.942 
09:50	77.4	77.4	79.3	77	69.6	0	1	112	0.00	29.942 
09:55	77.7	77.7	79.7	75	69.1	1	3	112	0.00	29.942 
10:00	78.1	78.1	80.3	74	69.1	1	3	112	0.00	29.941 
10:05	78.5	78.5	80.9	73	69.1	0	2	112	0.00	29.941 
10:10	79.0	79.0	81.6	72	69.2	0	3	112	0.00	29.941 
10:15	79.4	79.4	82.3	73	70.0	0	1	112	0.00	29.938 
10:20	79.8	79.8	82.6	70	69.1	1	3	112	0.00	29.938 
10:25	80.3	80.3	83.3	69	69.2	0	2	112	0.00	29.938 
10:30	80.7	80.7	83.7	67	68.7	1	3	112	0.00	29.938 
10:35	81.1	81.1	84.5	68	69.5	0	2	112	0.00	29.938 
10:40	81.4	81.4	84.4	65	68.5	1	3	112	0.00	29.938 
10:45	81.6	81.6	84.9	66	69.1	1	4	270	0.00	29.939 
10:50	82.0	82.0	85.4	65	69.0	0	1	270	0.00	29.939 
10:55	82.4	82.4	85.8	64	69.0	1	3	270	0.00	29.939 
11:00	82.8	82.8	86.7	65	69.8	0	2	270	0.00	29.933 
11:05	83.4	83.4	87.8	65	70.4	0	2	270	0.00	29.933 
11:10	83.6	83.6	87.6	63	69.6	1	4	270	0.00	29.933 
11:15	83.8	83.8	88.3	64	70.3	0	2	270	0.00	29.937 
11:20	84.0	84.0	87.8	61	69.1	1	3	270	0.00	29.937 
11:25	84.0	84.0	87.5	60	68.6	1	4	270	0.00	29.937 
11:30	84.1	84.1	87.4	59	68.2	1	4	270	0.00	29.937 
11:35	84.3	84.3	87.8	59	68.4	1	3	270	0.00	29.937 
11:40	84.9	84.9	89.4	61	69.9	1	3	270	0.00	29.937 
11:45	85.1	85.1	88.8	58	68.6	1	4	270	0.00	29.935 
11:50	85.3	85.3	89.2	58	68.8	1	4	270	0.00	29.935 
11:55	85.5	85.5	88.9	56	68.0	1	4	270	0.00	29.935 
12:00	85.3	85.3	88.8	57	68.3	2	4	270	0.00	29.933 
12:05	85.1	85.1	88.8	58	68.6	2	3	270	0.00	29.933 
12:10	85.5	85.5	89.2	57	68.5	2	4	270	0.00	29.933 
12:15	85.7	85.7	89.2	56	68.2	2	4	270	0.00	29.935 
12:20	86.1	86.1	89.6	55	68.0	2	4	270	0.00	29.935 
12:25	86.3	86.3	89.6	54	67.7	2	5	270	0.00	29.935 
12:30	86.3	86.3	89.3	53	67.1	1	4	292	0.00	29.933 
12:35	86.3	86.3	89.3	53	67.1	2	4	292	0.00	29.933 
12:40	86.3	86.3	89.3	53	67.1	2	3	292	0.00	29.933 
12:45	86.5	86.5	89.3	52	66.7	1	4	292	0.00	29.923 
12:50	86.7	86.7	88.9	50	65.8	2	5	292	0.00	29.923 
12:55	86.5	86.5	88.3	49	65.0	3	6	270	0.00	29.923 
13:00	86.5	86.5	88.3	49	65.0	2	3	270	0.00	29.921 
13:05	86.3	86.3	88.3	50	65.4	2	5	270	0.00	29.921 
13:10	86.5	86.5	89.3	52	66.7	2	5	315	0.00	29.921 
13:15	87.2	87.2	89.4	49	65.7	1	4	315	0.00	29.913 
13:20	87.8	87.8	89.7	47	65.0	1	4	292	0.00	29.913 
13:25	88.0	88.0	90.3	48	65.8	1	4	292	0.00	29.913 
13:30	87.8	87.8	90.0	48	65.6	0	3	292	0.00	29.906 
13:35	87.6	87.6	90.0	49	66.0	1	3	292	0.00	29.906 
13:40	87.4	87.4	90.7	52	67.6	1	3	292	0.00	29.906 
13:45	88.0	88.0	90.0	47	65.2	1	6	292	0.00	29.902 
13:50	88.6	88.6	91.0	47	65.7	1	3	270	0.00	29.902 
13:55	88.6	88.6	91.0	47	65.7	2	4	270	0.00	29.902 
14:00	87.8	87.8	90.4	49	66.2	1	4	270	0.00	29.900 
14:05	87.6	87.6	90.4	50	66.6	1	6	315	0.00	29.900 
14:10	87.6	87.6	90.4	50	66.6	0	1	315	0.00	29.900 
14:15	87.6	87.6	90.0	49	66.0	1	3	315	0.00	29.897 
14:20	87.4	87.4	90.1	50	66.4	1	3	315	0.00	29.897 
14:25	87.2	87.2	89.4	49	65.7	1	4	292	0.00	29.897 
14:30	87.0	87.0	89.4	50	66.1	1	3	292	0.00	29.892 
14:35	86.7	86.7	88.9	50	65.8	1	4	292	0.00	29.892 
14:40	87.0	87.0	89.4	50	66.1	1	5	292	0.00	29.892 
14:45	87.4	87.4	89.7	49	65.9	2	4	270	0.00	29.887 
14:50	87.8	87.8	89.7	47	65.0	2	5	270	0.00	29.887 
14:55	88.2	88.2	90.3	47	65.4	1	4	270	0.00	29.887 
15:00	88.6	88.6	90.6	46	65.1	1	6	270	0.00	29.882 
15:05	89.0	89.0	91.2	46	65.5	1	4	292	0.00	29.882 
15:10	89.5	89.5	91.7	45	65.3	0	2	292	0.00	29.882 
15:15	89.7	89.7	92.0	45	65.5	0	3	292	0.00	29.878 
15:20	89.9	89.9	91.9	44	65.0	1	3	292	0.00	29.878 
15:25	89.5	89.5	91.7	45	65.3	1	5	292	0.00	29.878 
15:30	89.3	89.3	91.7	46	65.8	2	5	270	0.00	29.877 
15:35	89.0	89.0	91.2	46	65.5	0	3	270	0.00	29.877 
15:40	89.3	89.3	91.7	46	65.8	1	5	270	0.00	29.877 
15:45	89.5	89.5	92.1	46	65.9	1	4	292	0.00	29.874 
15:50	89.5	89.5	92.4	47	66.6	2	5	270	0.00	29.874 
15:55	89.3	89.3	91.7	46	65.8	0	4	270	0.00	29.874 
16:00	89.0	89.0	91.6	47	66.1	1	4	292	0.00	29.867 
16:05	88.8	88.8	91.3	47	65.9	2	6	292	0.00	29.867 
16:10	88.8	88.8	91.3	47	65.9	1	4	292	0.00	29.867 
16:15	88.8	88.8	90.9	46	65.3	2	5	292	0.00	29.862 
16:20	89.0	89.0	91.6	47	66.1	1	4	315	0.00	29.862 
16:25	89.0	89.0	91.2	46	65.5	1	4	292	0.00	29.862 
16:30	89.0	89.0	91.2	46	65.5	1	3	292	0.00	29.859 
16:35	88.8	88.8	90.9	46	65.3	1	4	270	0.00	29.859 
16:40	88.8	88.8	90.9	46	65.3	0	3	270	0.00	29.859 
16:45	88.6	88.6	91.0	47	65.7	0	3	270	0.00	29.850 
16:50	88.8	88.8	91.3	47	65.9	0	3	270	0.00	29.850 
16:55	89.0	89.0	91.2	46	65.5	1	5	270	0.00	29.850 
17:00	89.0	89.0	91.2	46	65.5	1	2	270	0.00	29.846 
17:05	89.0	89.0	91.2	46	65.5	1	4	270	0.00	29.846 
17:10	89.0	89.0	91.2	46	65.5	1	3	270	0.00	29.846 
17:15	89.0	89.0	91.2	46	65.5	1	4	270	0.00	29.847 
17:20	88.8	88.8	90.9	46	65.3	1	4	270	0.00	29.847 
17:25	88.8	88.8	91.3	47	65.9	1	5	270	0.00	29.847 
17:30	88.8	88.8	90.9	46	65.3	3	6	292	0.00	29.843 
17:35	88.6	88.6	90.6	46	65.1	2	6	292	0.00	29.843 
17:40	88.6	88.6	91.0	47	65.7	1	3	292	0.00	29.843 
17:45	88.8	88.8	90.9	46	65.3	1	4	315	0.00	29.841 
17:50	89.0	89.0	91.2	46	65.5	1	5	315	0.00	29.841 
17:55	89.0	89.0	91.2	46	65.5	1	4	292	0.00	29.841 
18:00	88.8	88.8	90.6	45	64.7	1	3	292	0.00	29.842 
18:05	88.6	88.6	90.6	46	65.1	0	3	292	0.00	29.842 
18:10	88.4	88.4	90.6	47	65.6	1	4	270	0.00	29.842 
18:15	88.0	88.0	90.0	47	65.2	0	4	270	0.00	29.840 
18:20	87.8	87.8	89.7	47	65.0	1	3	270	0.00	29.840 
18:25	87.8	87.8	89.7	47	65.0	1	3	270	0.00	29.840 
18:30	87.8	87.8	89.7	47	65.0	1	4	270	0.00	29.844 
18:35	87.8	87.8	89.7	47	65.0	2	5	270	0.00	29.844 
18:40	87.6	87.6	89.7	48	65.4	0	3	270	0.00	29.844 
18:45	87.6	87.6	89.7	48	65.4	1	4	270	0.00	29.844 
18:50	87.6	87.6	89.7	48	65.4	0	2	270	0.00	29.844 
18:55	87.6	87.6	89.7	48	65.4	0	2	270	0.00	29.844 
19:00	87.4	87.4	89.4	48	65.3	1	3	270	0.00	29.845 
19:05	87.2	87.2	89.1	48	65.1	0	3	270	0.00	29.845 
19:10	87.0	87.0	88.8	48	64.9	0	1	270	0.00	29.845 
19:15	87.0	87.0	89.1	49	65.5	0	1	270	0.00	29.848 
19:20	86.7	86.7	88.6	49	65.2	0	1	270	0.00	29.848 
19:25	86.5	86.5	88.3	49	65.0	0	2	270	0.00	29.848 
19:30	86.3	86.3	88.3	50	65.4	0	1	270	0.00	29.850 
19:35	85.9	85.9	87.5	49	64.5	0	1	270	0.00	29.850 
19:40	85.7	85.7	87.4	50	64.9	0	1	270	0.00	29.850 
19:45	85.5	85.5	87.2	50	64.7	0	1	270	0.00	29.852 
19:50	85.3	85.3	87.1	51	65.1	0	0	---	0.00	29.852 
19:55	84.9	84.9	86.8	52	65.3	0	0	---	0.00	29.852 
20:00	84.7	84.7	86.5	52	65.1	0	0	---	0.00	29.849 
20:05	84.3	84.3	86.0	52	64.7	0	0	---	0.00	29.849 
20:10	84.0	84.0	85.8	53	65.0	0	0	---	0.00	29.849 
20:15	83.8	83.8	85.5	53	64.8	0	0	---	0.00	29.845 
20:20	83.6	83.6	85.5	54	65.2	0	0	---	0.00	29.845 
20:25	83.2	83.2	84.9	54	64.8	0	0	---	0.00	29.845 
20:30	83.0	83.0	84.7	54	64.6	0	0	---	0.00	29.844 
20:35	82.6	82.6	84.3	55	64.8	0	0	---	0.00	29.844 
20:40	82.4	82.4	84.2	56	65.1	0	0	---	0.00	29.844 
20:45	82.2	82.2	84.2	57	65.4	0	0	---	0.00	29.840 
20:50	81.8	81.8	83.6	57	65.0	0	0	---	0.00	29.840 
20:55	81.6	81.6	83.5	58	65.4	0	0	---	0.00	29.840 
21:00	81.4	81.4	83.3	58	65.2	0	0	---	0.00	29.844 
21:05	81.2	81.2	83.2	59	65.5	0	0	---	0.00	29.844 
21:10	80.9	80.9	82.8	59	65.2	0	0	---	0.00	29.844 
21:15	80.9	80.9	82.8	59	65.2	0	0	---	0.00	29.845 
21:20	80.7	80.7	82.7	60	65.5	0	0	---	0.00	29.845 
21:25	80.5	80.5	82.5	61	65.8	0	0	---	0.00	29.845 
21:30	80.3	80.3	82.3	61	65.6	0	0	---	0.00	29.845 
21:35	79.9	79.9	81.9	62	65.7	0	0	---	0.00	29.845 
21:40	79.6	79.6	81.6	63	65.9	0	0	---	0.00	29.845 
21:45	79.4	79.4	81.4	63	65.7	0	0	---	0.00	29.852 
21:50	79.0	79.0	81.0	64	65.8	0	0	---	0.00	29.852 
21:55	78.8	78.8	80.8	65	66.0	0	0	---	0.00	29.852 
22:00	78.5	78.5	80.5	66	66.2	0	0	---	0.00	29.863 
22:05	78.3	78.3	80.3	67	66.4	0	0	---	0.00	29.863 
22:10	77.9	77.9	79.8	67	66.0	0	0	---	0.00	29.863 
22:15	77.7	77.7	79.6	68	66.3	0	0	---	0.00	29.861 
22:20	77.6	77.6	79.5	69	66.6	0	0	---	0.00	29.861 
22:25	77.4	77.4	79.2	69	66.4	0	0	---	0.00	29.861 
22:30	77.2	77.2	79.0	70	66.6	0	0	---	0.00	29.869 
22:35	77.0	77.0	78.8	70	66.4	0	0	---	0.00	29.869 
22:40	77.0	77.0	78.8	71	66.9	0	0	---	0.00	29.869 
22:45	76.8	76.8	78.5	72	67.1	0	0	---	0.00	29.874 
22:50	76.7	76.7	78.3	73	67.4	0	0	---	0.00	29.874 
22:55	76.5	76.5	78.1	73	67.2	0	0	---	0.00	29.874 
23:00	76.1	76.1	77.6	73	66.8	0	0	---	0.00	29.871 
23:05	76.0	76.0	77.4	74	67.1	0	0	---	0.00	29.871 
23:10	75.8	75.8	77.1	75	67.3	0	0	---	0.00	29.871 
23:15	75.8	75.8	77.1	75	67.3	0	0	---	0.00	29.868 
23:20	75.6	75.6	76.8	76	67.5	0	0	---	0.00	29.868 
23:25	75.6	75.6	76.8	76	67.5	0	0	---	0.00	29.868 
23:30	75.6	75.6	76.9	75	67.1	0	0	---	0.00	29.868 
23:35	75.6	75.6	76.9	75	67.1	0	0	---	0.00	29.868 
23:40	75.6	75.6	76.9	75	67.1	0	0	---	0.00	29.868 
23:45	75.8	75.8	77.2	74	66.9	0	0	---	0.00	29.863 
23:50	75.8	75.8	77.1	75	67.3	0	0	---	0.00	29.863 
23:55	75.8	75.8	77.2	74	66.9	0	0	---	0.00	29.863 

CoCoRaHS
IN-AL-39
A2 Web Hosting
Creative Commons License
GoDaddy
search engine by freefind advanced

loaded 2018-11-12 19:16:17 • last modified 2010-11-18 10:43:29
Privacy PolicyDisclaimer
• wx.awcolley.com is powered by PmWiki v.2002016 •
• all content (unless otherwise noted) © 2018 A W Colley